Time;durP1;ratioP1;P1;durP2;ratioP2;P2;SDS_P1;SDS_P2;PMS_P1;PMS_P2;Temp;Humidity;BMP_temperature;BMP_pressure;BME280_temperature;BME280_humidity;BME280_pressure;Samples;Min_cycle;Max_cycle;Signal;HPM_P1;HPM_P2
2022/05/13 00:04:48;;;;;;;7.80;2.10;;;;;;;18.66;75.13;100658.50;20981802;28;20044;-68
2022/05/13 00:14:51;;;;;;;6.90;1.80;;;;;;;18.58;75.59;100659.75;20982482;28;20045;-69
2022/05/13 00:24:54;;;;;;;6.82;2.15;;;;;;;18.65;75.02;100648.81;20986598;28;20397;-70
2022/05/13 00:34:56;;;;;;;5.32;2.13;;;;;;;18.62;76.29;100662.19;20996475;28;20082;-69
2022/05/13 00:44:58;;;;;;;6.63;1.70;;;;;;;18.57;77.43;100669.50;20993180;28;20459;-70
2022/05/13 00:55:08;;;;;;;5.35;1.80;;;;;;;18.44;78.32;100666.56;20996152;28;20078;-69
2022/05/13 01:05:12;;;;;;;9.02;2.45;;;;;;;18.38;78.10;100645.59;20994168;28;20045;-70
2022/05/13 01:15:19;;;;;;;4.82;1.80;;;;;;;18.33;78.38;100644.94;20995127;28;20473;-70
2022/05/13 01:25:24;;;;;;;6.25;2.17;;;;;;;18.37;78.97;100643.03;20995492;28;20045;-70
2022/05/13 01:35:26;;;;;;;5.82;2.30;;;;;;;18.31;78.68;100648.59;20991756;28;20131;-70
2022/05/13 01:45:27;;;;;;;6.90;2.10;;;;;;;18.18;77.87;100649.13;20992079;28;20056;-70
2022/05/13 01:55:29;;;;;;;6.88;2.40;;;;;;;18.27;77.61;100644.34;20991527;28;20099;-69
2022/05/13 02:05:30;;;;;;;5.63;2.60;;;;;;;18.24;76.46;100655.94;20988394;28;20051;-69
2022/05/13 02:15:32;;;;;;;5.18;2.28;;;;;;;18.22;77.64;100651.66;20989926;28;20079;-69
2022/05/13 02:25:34;;;;;;;7.53;2.30;;;;;;;18.09;78.37;100646.84;20989577;28;20059;-68
2022/05/13 02:35:35;;;;;;;6.43;2.67;;;;;;;18.07;78.92;100646.06;20986743;28;20062;-68
2022/05/13 02:45:37;;;;;;;7.93;2.25;;;;;;;17.91;77.54;100648.50;20986818;28;20045;-68
2022/05/13 02:55:39;;;;;;;4.07;1.90;;;;;;;17.85;78.09;100640.81;20985254;28;20072;-68
2022/05/13 03:05:42;;;;;;;7.17;2.40;;;;;;;17.76;76.44;100649.13;20984240;28;20127;-68
2022/05/13 03:15:44;;;;;;;8.57;2.60;;;;;;;17.76;78.24;100640.34;20984815;28;20048;-68
2022/05/13 03:25:45;;;;;;;8.10;2.67;;;;;;;17.77;77.95;100647.34;20984871;28;20048;-68
2022/05/13 03:35:47;;;;;;;6.38;3.15;;;;;;;17.75;79.07;100655.38;20983581;28;20048;-68
2022/05/13 03:45:48;;;;;;;7.13;2.63;;;;;;;17.50;80.88;100663.41;20983600;28;20409;-68
2022/05/13 03:55:50;;;;;;;7.68;2.70;;;;;;;17.37;81.83;100659.53;20983400;28;20063;-68
2022/05/13 04:16:12;;;;;;;6.07;2.50;;;;;;;17.34;82.70;100686.13;20998351;28;20090;-68
2022/05/13 04:26:14;;;;;;;7.80;2.83;;;;;;;17.34;83.55;100684.34;20998543;28;20558;-70
2022/05/13 04:36:16;;;;;;;7.97;3.00;;;;;;;17.36;83.46;100684.28;20996893;28;20059;-71
2022/05/13 04:46:18;;;;;;;5.75;2.38;;;;;;;17.39;84.14;100689.44;20996577;28;20102;-70
2022/05/13 04:56:21;;;;;;;7.50;3.00;;;;;;;17.30;84.86;100700.41;20995762;28;20110;-70
2022/05/13 05:06:23;;;;;;;6.97;2.58;;;;;;;17.33;84.85;100703.78;20992858;28;20048;-69
2022/05/13 05:16:25;;;;;;;16.20;4.47;;;;;;;17.44;84.50;100716.63;20993894;28;20056;-70
2022/05/13 05:26:27;;;;;;;7.90;3.08;;;;;;;17.46;84.41;100722.72;20994542;28;20478;-70
2022/05/13 05:36:28;;;;;;;8.30;2.80;;;;;;;17.39;84.84;100724.75;20992630;28;20048;-70
2022/05/13 05:46:30;;;;;;;6.53;2.92;;;;;;;17.72;84.69;100739.34;20992240;28;20431;-70
2022/05/13 06:06:51;;;;;;;8.45;3.05;;;;;;;17.91;82.44;100750.94;20988625;28;20048;-68
2022/05/13 06:16:54;;;;;;;8.57;3.42;;;;;;;18.00;81.74;100755.88;20990374;28;20048;-68
2022/05/13 06:26:55;;;;;;;10.35;3.42;;;;;;;17.95;81.94;100776.41;20988665;28;20463;-68
2022/05/13 06:36:57;;;;;;;6.43;2.85;;;;;;;18.15;81.09;100786.19;20987499;28;20464;-67
2022/05/13 06:46:58;;;;;;;10.70;2.40;;;;;;;18.34;76.88;100792.47;20987197;28;20485;-67
2022/05/13 06:57:00;;;;;;;5.90;2.47;;;;;;;18.40;72.42;100804.63;20986644;28;20082;-67
2022/05/13 07:07:02;;;;;;;7.07;2.58;;;;;;;18.50;72.45;100803.31;20972531;28;20040;-67
2022/05/13 07:17:04;;;;;;;8.23;2.47;;;;;;;18.66;71.66;100814.97;20977128;28;20052;-66
2022/05/13 07:27:06;;;;;;;9.50;2.42;;;;;;;19.03;69.05;100818.72;20974071;28;20040;-67
2022/05/13 07:37:08;;;;;;;8.20;2.42;;;;;;;18.56;67.04;100818.94;20972405;28;20440;-67
2022/05/13 07:47:10;;;;;;;10.38;2.63;;;;;;;18.78;67.96;100820.72;20975932;28;20058;-67
2022/05/13 07:57:12;;;;;;;9.10;2.25;;;;;;;19.30;62.20;100816.63;20975707;28;20058;-67
2022/05/13 08:07:14;;;;;;;10.10;2.60;;;;;;;18.98;60.00;100814.56;20974463;28;20735;-67
2022/05/13 08:17:16;;;;;;;5.47;1.80;;;;;;;19.28;52.57;100822.94;20975042;28;20079;-67
2022/05/13 08:27:17;;;;;;;5.45;1.67;;;;;;;19.80;52.01;100825.91;20974926;28;20396;-67
2022/05/13 08:37:19;;;;;;;5.63;1.80;;;;;;;19.57;51.01;100827.78;20973772;28;20500;-67
2022/05/13 08:47:26;;;;;;;8.48;1.27;;;;;;;19.44;50.78;100834.59;20979635;28;20055;-67
2022/05/13 08:57:31;;;;;;;4.82;1.70;;;;;;;19.60;50.51;100840.13;20985513;28;20048;-67
2022/05/13 09:07:33;;;;;;;6.55;2.38;;;;;;;19.62;50.69;100839.09;20983395;28;20045;-67
2022/05/13 09:17:39;;;;;;;4.40;1.38;;;;;;;19.35;50.46;100842.97;20986486;28;20056;-67
2022/05/13 09:27:46;;;;;;;7.38;1.75;;;;;;;19.73;49.65;100831.47;20986414;28;20050;-68
2022/05/13 09:37:48;;;;;;;6.18;1.30;;;;;;;20.14;45.73;100835.78;20985622;28;20078;-68
2022/05/13 09:48:11;;;;;;;6.22;1.33;;;;;;;20.81;43.96;100826.25;20984552;28;20049;-67
2022/05/13 09:58:27;;;;;;;5.22;1.40;;;;;;;20.43;44.10;100829.03;20979563;28;20052;-67
2022/05/13 10:08:29;;;;;;;6.53;1.55;;;;;;;21.12;42.45;100813.03;20979087;28;20049;-68
2022/05/13 10:18:33;;;;;;;5.53;1.58;;;;;;;20.86;43.32;100809.09;20982471;28;20078;-67
2022/05/13 10:29:04;;;;;;;5.50;1.20;;;;;;;21.08;41.35;100813.28;20981476;28;20052;-68
2022/05/13 10:39:33;;;;;;;6.50;1.55;;;;;;;20.89;42.75;100803.63;20978938;28;20101;-68
2022/05/13 10:49:39;;;;;;;4.63;1.40;;;;;;;20.86;41.09;100808.25;20978053;28;20469;-68
2022/05/13 10:59:59;;;;;;;4.20;1.33;;;;;;;20.84;40.00;100791.47;20978808;28;20480;-68
2022/05/13 11:10:36;;;;;;;5.78;1.10;;;;;;;20.90;39.37;100793.84;20975917;28;20118;-67
2022/05/13 11:20:52;;;;;;;6.00;1.23;;;;;;;21.35;37.01;100779.91;20978476;28;20514;-68
2022/05/13 11:31:31;;;;;;;6.43;1.35;;;;;;;21.41;37.08;100768.03;20974542;28;20064;-68
2022/05/13 11:41:45;;;;;;;5.13;1.30;;;;;;;21.32;38.70;100772.09;20974662;28;20044;-68
2022/05/13 11:52:12;;;;;;;5.28;1.27;;;;;;;21.86;36.75;100766.44;20975934;28;20492;-69
2022/05/13 12:02:30;;;;;;;7.97;1.45;;;;;;;21.80;36.23;100764.09;20972067;28;20067;-69
2022/05/13 12:12:59;;;;;;;7.18;1.40;;;;;;;21.73;37.56;100753.78;20972010;28;20048;-66
2022/05/13 12:23:11;;;;;;;5.35;1.10;;;;;;;21.68;36.52;100766.50;20979340;28;20045;-69
2022/05/13 12:33:25;;;;;;;4.82;1.10;;;;;;;22.30;35.52;100749.69;20989753;28;20051;-69
2022/05/13 12:43:53;;;;;;;4.88;1.17;;;;;;;21.89;36.13;100735.09;20989338;28;20098;-68
2022/05/13 12:53:57;;;;;;;3.30;1.00;;;;;;;22.50;33.08;100728.00;20986452;28;20059;-68
2022/05/13 13:04:00;;;;;;;5.27;1.20;;;;;;;21.97;36.43;100718.69;20986163;28;20519;-68
2022/05/13 13:14:23;;;;;;;5.03;1.10;;;;;;;22.61;32.93;100720.22;20983086;28;20055;-69
2022/05/13 13:24:32;;;;;;;4.47;1.15;;;;;;;22.73;34.15;100722.16;20983986;28;20054;-68
2022/05/13 13:34:36;;;;;;;4.05;1.00;;;;;;;22.99;33.66;100709.00;20984646;28;20071;-68
2022/05/13 13:44:39;;;;;;;3.37;1.07;;;;;;;22.84;33.43;100707.28;20985485;28;20048;-68
2022/05/13 13:54:46;;;;;;;4.50;1.10;;;;;;;23.25;31.24;100697.56;20983902;28;20044;-68
2022/05/13 14:04:48;;;;;;;3.85;1.05;;;;;;;23.24;29.59;100706.53;20981851;28;20076;-68
2022/05/13 14:14:55;;;;;;;4.97;1.10;;;;;;;23.19;29.72;100695.28;20981957;28;20072;-68
2022/05/13 14:25:06;;;;;;;3.65;0.98;;;;;;;23.46;31.28;100697.13;20977931;28;20131;-67
2022/05/13 14:35:13;;;;;;;3.83;0.90;;;;;;;22.96;29.72;100695.88;20976782;28;20052;-67
2022/05/13 14:45:28;;;;;;;3.30;0.77;;;;;;;23.12;29.43;100688.59;20976476;28;20048;-68
2022/05/13 14:55:45;;;;;;;3.13;0.80;;;;;;;23.49;29.38;100688.91;20976663;28;20099;-67
2022/05/13 15:05:47;;;;;;;5.18;0.85;;;;;;;23.46;29.48;100695.31;20976944;28;20048;-67
2022/05/13 15:15:48;;;;;;;3.15;0.65;;;;;;;22.83;29.58;100698.41;20973955;28;20048;-67
2022/05/13 15:25:51;;;;;;;4.88;0.85;;;;;;;23.00;29.84;100697.41;20976893;28;20048;-67
2022/05/13 15:35:53;;;;;;;2.78;0.77;;;;;;;23.19;28.17;100697.09;20971776;28;20496;-68
2022/05/13 15:45:55;;;;;;;2.70;0.95;;;;;;;23.41;27.25;100693.91;20975929;28;20059;-68
2022/05/13 15:56:00;;;;;;;3.78;0.90;;;;;;;23.10;27.53;100700.34;20974625;28;20048;-68
2022/05/13 16:06:02;;;;;;;4.97;1.00;;;;;;;23.17;28.09;100707.00;20973777;28;20394;-67
2022/05/13 16:16:10;;;;;;;4.28;0.65;;;;;;;23.03;27.18;100697.19;20973117;28;20675;-68
2022/05/13 16:26:15;;;;;;;4.65;0.63;;;;;;;23.05;27.56;100697.97;20971426;28;20094;-68
2022/05/13 16:36:16;;;;;;;4.05;0.70;;;;;;;23.24;28.21;100698.53;20969955;28;20049;-67
2022/05/13 16:46:18;;;;;;;2.42;0.60;;;;;;;23.08;28.03;100703.09;20973809;28;20133;-67
2022/05/13 16:56:20;;;;;;;5.75;0.85;;;;;;;23.10;28.78;100706.56;20974183;28;20462;-67
2022/05/13 17:06:22;;;;;;;5.00;0.70;;;;;;;22.74;29.38;100720.34;20971576;28;20041;-67
2022/05/13 17:16:24;;;;;;;3.15;0.77;;;;;;;22.50;29.06;100715.53;20985311;28;20112;-67
2022/05/13 17:26:26;;;;;;;3.05;0.90;;;;;;;22.79;30.16;100719.09;20982604;28;20091;-67
2022/05/13 17:36:28;;;;;;;2.80;0.63;;;;;;;22.60;29.97;100723.84;20984954;28;20048;-67
2022/05/13 17:46:29;;;;;;;4.50;0.80;;;;;;;22.22;31.09;100724.31;20984922;28;20048;-67
2022/05/13 17:56:31;;;;;;;4.30;0.63;;;;;;;22.03;32.05;100726.31;20985167;28;20420;-67
2022/05/13 18:06:33;;;;;;;3.55;0.60;;;;;;;21.81;32.88;100734.72;20980740;28;20041;-67
2022/05/13 18:16:35;;;;;;;4.68;0.95;;;;;;;21.44;34.27;100730.59;20981918;28;20060;-67
2022/05/13 18:26:41;;;;;;;2.88;0.90;;;;;;;20.73;36.39;100739.69;20980977;28;20067;-68
2022/05/13 18:36:43;;;;;;;4.38;0.90;;;;;;;20.29;38.18;100752.56;20979663;28;20643;-67
2022/05/13 18:46:44;;;;;;;3.60;0.90;;;;;;;19.93;39.41;100760.56;20978902;28;20059;-68
2022/05/13 18:56:46;;;;;;;3.95;0.88;;;;;;;19.54;41.35;100760.66;20978494;28;20059;-68
2022/05/13 19:06:51;;;;;;;4.88;1.17;;;;;;;19.21;42.26;100772.78;20975847;28;20055;-68
2022/05/13 19:16:53;;;;;;;5.10;1.13;;;;;;;18.83;42.86;100774.50;20973783;28;20079;-68
2022/05/13 19:26:54;;;;;;;3.42;1.00;;;;;;;18.53;44.49;100795.19;20976735;28;20071;-68
2022/05/13 19:36:56;;;;;;;5.53;1.23;;;;;;;18.19;45.88;100793.09;20975143;28;20433;-67
2022/05/13 19:46:57;;;;;;;5.53;0.80;;;;;;;17.93;47.26;100807.41;20975516;28;20497;-67
2022/05/13 19:57:00;;;;;;;4.22;0.98;;;;;;;17.61;49.20;100820.06;20975229;28;20059;-68
2022/05/13 20:17:21;;;;;;;4.88;1.00;;;;;;;16.96;50.97;100833.97;20968272;28;20425;-69
2022/05/13 20:27:23;;;;;;;4.32;1.13;;;;;;;16.64;52.74;100843.81;20974310;28;20499;-69
2022/05/13 20:37:24;;;;;;;9.63;1.27;;;;;;;16.50;52.75;100829.34;20973397;28;20152;-68
2022/05/13 20:47:26;;;;;;;3.67;0.90;;;;;;;16.40;52.54;100834.06;20986501;28;20056;-68
2022/05/13 20:57:27;;;;;;;6.88;1.00;;;;;;;16.09;54.15;100845.59;20989150;28;20143;-69
2022/05/13 21:07:31;;;;;;;4.93;1.00;;;;;;;15.97;54.96;100847.78;20985856;28;20059;-66
2022/05/13 21:17:33;;;;;;;5.63;1.10;;;;;;;15.58;56.19;100846.25;20986501;28;20103;-67
2022/05/13 21:27:37;;;;;;;3.75;0.90;;;;;;;15.43;56.77;100849.34;20977921;28;20505;-67
2022/05/13 21:37:39;;;;;;;2.30;1.10;;;;;;;15.26;57.40;100854.22;20984610;28;20076;-67
2022/05/13 21:47:40;;;;;;;6.18;1.65;;;;;;;15.12;60.38;100860.72;20984544;28;20139;-68
2022/05/13 21:57:42;;;;;;;4.07;1.42;;;;;;;14.83;65.31;100873.81;20983624;28;20049;-68
2022/05/13 22:07:44;;;;;;;5.72;1.20;;;;;;;14.46;65.34;100865.91;20984381;28;20413;-68
2022/05/13 22:17:46;;;;;;;5.38;1.33;;;;;;;14.35;64.50;100866.19;20989989;28;20076;-68
2022/05/13 22:27:48;;;;;;;3.92;1.08;;;;;;;14.33;64.66;100874.13;20988841;28;20075;-68
2022/05/13 22:37:50;;;;;;;5.43;1.40;;;;;;;14.17;65.53;100877.13;20987916;28;20049;-67
2022/05/13 22:47:51;;;;;;;2.58;1.20;;;;;;;13.81;68.64;100875.31;20987203;28;20059;-67
2022/05/13 22:57:53;;;;;;;2.28;1.13;;;;;;;13.52;70.29;100889.06;20987068;28;20056;-67
2022/05/13 23:18:16;;;;;;;6.65;1.52;;;;;;;13.14;73.85;100902.03;20984922;28;20230;-67
2022/05/13 23:28:17;;;;;;;4.50;1.23;;;;;;;12.94;75.55;100900.63;20984575;28;20500;-67
2022/05/13 23:38:19;;;;;;;11.68;2.85;;;;;;;12.72;77.38;100894.00;20983180;28;20044;-67
2022/05/13 23:48:22;;;;;;;3.00;1.45;;;;;;;12.54;78.27;100897.78;20983085;28;20048;-67
2022/05/13 23:58:25;;;;;;;5.18;1.80;;;;;;;12.28;78.87;100892.94;20983038;28;20081;-67
